createdAt,value
2022-11-25T00:01:22.839Z,-5.05
2022-11-25T00:04:27.606Z,-5.03
2022-11-25T00:07:31.747Z,-5.28
2022-11-25T00:10:36.243Z,-5.18
2022-11-25T00:13:40.691Z,-4.95
2022-11-25T00:16:48.724Z,-5.16
2022-11-25T00:19:53.284Z,-4.94
2022-11-25T00:22:57.506Z,-5.11
2022-11-25T00:26:18.597Z,-4.66
2022-11-25T00:29:22.961Z,-4.76
2022-11-25T00:32:27.441Z,-4.76
2022-11-25T00:35:31.811Z,-4.77
2022-11-25T00:38:36.351Z,-4.62
2022-11-25T00:41:59.205Z,-4.31
2022-11-25T00:45:03.619Z,-4.16
2022-11-25T00:48:08.244Z,-4.23
2022-11-25T00:51:12.621Z,-4.12
2022-11-25T00:54:17.163Z,-4.09
2022-11-25T00:57:24.334Z,-3.43
2022-11-25T01:00:28.955Z,-3.23
2022-11-25T01:03:33.917Z,-3.20
2022-11-25T01:06:39.633Z,-3.12
2022-11-25T01:09:43.946Z,-3.36
2022-11-25T01:12:49.029Z,-3.28
2022-11-25T01:15:53.792Z,-3.55
2022-11-25T01:19:00.063Z,-3.31
2022-11-25T01:22:04.105Z,-3.42
2022-11-25T01:25:08.790Z,-3.62
2022-11-25T01:28:14.882Z,-3.86
2022-11-25T01:31:23.033Z,-3.64
2022-11-25T01:34:28.826Z,-3.69
2022-11-25T01:37:34.683Z,-3.59
2022-11-25T01:40:40.857Z,-3.45
2022-11-25T01:43:45.279Z,-3.70
2022-11-25T01:47:04.814Z,-3.61
2022-11-25T01:50:14.116Z,-3.67
2022-11-25T01:53:21.705Z,-3.53
2022-11-25T01:56:29.846Z,-3.70
2022-11-25T01:59:41.391Z,-3.86
2022-11-25T02:02:46.718Z,-3.66
2022-11-25T02:05:58.297Z,-3.56
2022-11-25T02:09:07.619Z,-3.68
2022-11-25T02:12:13.041Z,-3.65
2022-11-25T02:15:37.337Z,-3.68
2022-11-25T02:18:41.948Z,-3.46
2022-11-25T02:21:51.693Z,-3.70
2022-11-25T02:25:03.155Z,-3.49
2022-11-25T02:28:24.356Z,-3.52
2022-11-25T02:31:28.968Z,-3.51
2022-11-25T02:34:34.033Z,-3.53
2022-11-25T02:37:38.461Z,-3.60
2022-11-25T02:40:51.174Z,-3.45
2022-11-25T02:43:56.560Z,-3.32
2022-11-25T02:47:01.103Z,-3.61
2022-11-25T02:50:06.332Z,-3.36
2022-11-25T02:53:10.713Z,-3.35
2022-11-25T02:56:17.332Z,-3.26
2022-11-25T02:59:21.580Z,-3.38
2022-11-25T03:02:25.979Z,-3.21
2022-11-25T03:05:30.535Z,-3.07
2022-11-25T03:08:37.581Z,-3.19
2022-11-25T03:12:03.523Z,-2.79
2022-11-25T03:15:08.336Z,-2.78
2022-11-25T03:18:12.657Z,-2.74
2022-11-25T03:21:17.096Z,-2.94
2022-11-25T03:24:21.529Z,-2.95
2022-11-25T03:27:30.172Z,-2.81
2022-11-25T03:30:35.466Z,-2.67
2022-11-25T03:33:41.071Z,-2.63
2022-11-25T03:36:45.369Z,-2.72
2022-11-25T03:39:50.054Z,-2.62
2022-11-25T03:42:54.919Z,-2.64
2022-11-25T03:46:00.639Z,-2.67
2022-11-25T03:49:05.535Z,-2.57
2022-11-25T03:52:09.972Z,-2.52
2022-11-25T03:55:14.589Z,-2.52
2022-11-25T03:58:22.202Z,-2.39
2022-11-25T04:01:28.470Z,-2.19
2022-11-25T04:04:33.145Z,-2.17
2022-11-25T04:07:37.821Z,-1.95
2022-11-25T04:10:44.655Z,-1.88
2022-11-25T04:13:49.310Z,-1.81
2022-11-25T04:16:53.882Z,-1.81
2022-11-25T04:19:58.496Z,-1.63
2022-11-25T04:23:02.850Z,-1.73
2022-11-25T04:26:08.749Z,-1.69
2022-11-25T04:29:16.997Z,-1.65
2022-11-25T04:32:21.305Z,-1.77
2022-11-25T04:35:26.940Z,-1.73
2022-11-25T04:38:32.176Z,-1.72
2022-11-25T04:41:37.722Z,-1.62
2022-11-25T04:45:01.024Z,-1.39
2022-11-25T04:48:09.089Z,-1.59
2022-11-25T04:51:14.009Z,-1.56
2022-11-25T04:54:18.621Z,-1.50
2022-11-25T04:57:24.749Z,-1.43
2022-11-25T05:00:29.715Z,-1.62
2022-11-25T05:03:34.481Z,-1.52
2022-11-25T05:06:39.332Z,-1.52
2022-11-25T05:09:45.484Z,-1.26
2022-11-25T05:12:57.579Z,-1.22
2022-11-25T05:16:02.040Z,-1.26
2022-11-25T05:19:07.511Z,-1.13
2022-11-25T05:22:13.627Z,-1.21
2022-11-25T05:25:21.567Z,-0.89
2022-11-25T05:28:41.740Z,-0.71
2022-11-25T05:31:47.769Z,-0.92
2022-11-25T05:34:52.714Z,-0.85
2022-11-25T05:37:57.269Z,-0.85
2022-11-25T05:41:04.375Z,-0.86
2022-11-25T05:44:08.917Z,-0.96
2022-11-25T05:47:13.196Z,-1.18
2022-11-25T05:50:18.733Z,-1.08
2022-11-25T05:53:40.321Z,-1.22
2022-11-25T05:56:44.831Z,-1.09
2022-11-25T06:00:16.477Z,-0.96
2022-11-25T06:03:30.929Z,-0.85
2022-11-25T06:06:36.723Z,-0.74
2022-11-25T06:09:41.359Z,-0.78
2022-11-25T06:12:46.285Z,-0.82
2022-11-25T06:15:51.802Z,-0.84
2022-11-25T06:18:56.910Z,-0.73
2022-11-25T06:22:01.319Z,-0.61
2022-11-25T06:25:06.997Z,-0.71
2022-11-25T06:28:13.793Z,-0.85
2022-11-25T06:31:26.648Z,-0.41
2022-11-25T06:34:43.664Z,-0.33
2022-11-25T06:38:03.132Z,-0.50
2022-11-25T06:41:07.389Z,-0.31
2022-11-25T06:44:11.644Z,-0.35
2022-11-25T06:47:16.117Z,-0.42
2022-11-25T06:50:20.513Z,-0.54
2022-11-25T06:53:25.370Z,-0.61
2022-11-25T06:56:30.356Z,-0.49
2022-11-25T06:59:35.331Z,-0.67
2022-11-25T07:02:44.119Z,-0.54
2022-11-25T07:05:51.161Z,-0.37
2022-11-25T07:08:55.594Z,-0.46
2022-11-25T07:11:59.948Z,-0.19
2022-11-25T07:15:04.535Z,-0.19
2022-11-25T07:18:09.091Z,-0.14
2022-11-25T07:21:19.333Z,-0.32
2022-11-25T07:24:23.875Z,-0.39
2022-11-25T07:27:28.570Z,-0.34
2022-11-25T07:34:22.430Z,-0.22
2022-11-25T07:37:28.511Z,-0.21
2022-11-25T07:40:32.991Z,-0.24
2022-11-25T07:43:38.267Z,-0.21
2022-11-25T07:46:46.485Z,-0.06
2022-11-25T07:49:50.873Z,-0.26
2022-11-25T07:52:55.570Z,-0.17
2022-11-25T07:56:03.852Z,0.04
2022-11-25T07:59:09.716Z,0.15
2022-11-25T08:02:14.364Z,0.25
2022-11-25T08:05:18.850Z,0.08
2022-11-25T08:08:23.239Z,-0.01
2022-11-25T08:11:33.399Z,0.06
2022-11-25T08:14:37.840Z,0.25
2022-11-25T08:17:42.573Z,0.24
2022-11-25T08:20:47.205Z,0.20
2022-11-25T08:23:53.385Z,0.43
2022-11-25T08:26:59.699Z,0.15
2022-11-25T08:30:03.968Z,0.38
2022-11-25T08:33:08.963Z,0.20
2022-11-25T08:36:13.700Z,0.47
2022-11-25T08:39:50.555Z,0.25
2022-11-25T08:42:44.480Z,0.11
2022-11-25T08:45:50.437Z,0.08
2022-11-25T08:48:54.868Z,-0.10
2022-11-25T08:51:59.105Z,-0.08
2022-11-25T08:55:03.430Z,0.19
2022-11-25T08:58:10.962Z,0.13
2022-11-25T09:01:15.418Z,0.02
2022-11-25T09:04:19.734Z,-0.22
2022-11-25T09:07:30.334Z,-0.01
2022-11-25T09:10:36.590Z,-0.11
2022-11-25T09:13:40.477Z,-0.15
2022-11-25T09:16:45.290Z,-0.28
2022-11-25T09:19:49.732Z,-0.12
2022-11-25T09:22:53.943Z,-0.08
2022-11-25T09:25:59.814Z,-0.26
2022-11-25T09:29:05.042Z,-0.17
2022-11-25T09:32:09.577Z,-0.16
2022-11-25T09:35:14.260Z,-0.30
2022-11-25T09:38:18.827Z,-0.29
2022-11-25T09:42:09.009Z,-0.31
2022-11-25T09:45:35.088Z,-0.25
2022-11-25T09:49:08.698Z,-0.23
2022-11-25T09:52:54.703Z,-0.06
2022-11-25T09:56:12.279Z,0.01
2022-11-25T09:59:28.634Z,-0.13
2022-11-25T10:02:47.178Z,-0.09
2022-11-25T10:06:07.406Z,-0.01
2022-11-25T10:09:16.597Z,-0.10
2022-11-25T10:12:30.816Z,-0.09
2022-11-25T10:15:41.910Z,-0.12
2022-11-25T10:19:14.472Z,-0.21
2022-11-25T10:22:26.927Z,-0.23
2022-11-25T10:25:38.608Z,0.02
2022-11-25T10:29:05.273Z,-0.16
2022-11-25T10:32:26.352Z,-0.08
2022-11-25T10:35:37.957Z,0.09
2022-11-25T10:39:11.178Z,0.19
2022-11-25T10:42:27.989Z,-0.19
2022-11-25T10:45:42.242Z,-0.26
2022-11-25T10:49:30.468Z,-0.44
2022-11-25T10:52:42.136Z,-0.79
2022-11-25T10:56:00.673Z,-0.72
2022-11-25T10:59:15.436Z,-0.66
2022-11-25T11:02:27.140Z,-0.71
2022-11-25T11:05:32.326Z,-0.95
2022-11-25T11:08:41.921Z,-1.26
2022-11-25T11:11:50.751Z,-1.18
2022-11-25T11:15:15.473Z,-1.15
2022-11-25T11:18:46.680Z,-1.12
2022-11-25T11:21:52.168Z,-1.00
2022-11-25T11:25:21.290Z,-1.18
2022-11-25T11:28:27.113Z,-1.02
2022-11-25T11:31:47.976Z,-1.15
2022-11-25T11:35:07.587Z,-0.75
2022-11-25T11:38:31.831Z,-1.04
2022-11-25T11:41:48.494Z,-1.31
2022-11-25T11:45:22.794Z,-0.93
2022-11-25T11:48:35.796Z,-0.65
2022-11-25T11:52:25.742Z,-0.46
2022-11-25T11:56:18.820Z,-0.44
2022-11-25T11:59:47.503Z,-0.65
2022-11-25T12:03:02.434Z,-0.41
2022-11-25T12:06:10.871Z,-0.34
2022-11-25T12:09:21.725Z,-0.34
2022-11-25T12:12:36.234Z,-0.38
2022-11-25T12:16:13.527Z,-0.35
2022-11-25T12:19:42.786Z,-0.40
2022-11-25T12:23:05.273Z,-0.31
2022-11-25T12:26:22.060Z,-0.89
2022-11-25T12:29:51.647Z,-1.10
2022-11-25T12:33:23.042Z,-1.12
2022-11-25T12:36:42.890Z,-1.00
2022-11-25T12:40:04.452Z,-1.06
2022-11-25T12:43:44.064Z,-0.59
2022-11-25T12:46:54.141Z,-0.61
2022-11-25T12:49:59.057Z,-0.50
2022-11-25T12:53:38.336Z,-0.27
2022-11-25T12:56:51.175Z,-0.40
2022-11-25T13:00:40.426Z,-0.35
2022-11-25T13:04:16.465Z,-0.30
2022-11-25T13:07:23.929Z,-0.33
2022-11-25T13:10:40.513Z,-0.41
2022-11-25T13:14:03.964Z,-0.31
2022-11-25T13:17:13.656Z,-0.32
2022-11-25T13:20:30.878Z,-0.13
2022-11-25T13:23:50.861Z,-0.44
2022-11-25T13:26:55.406Z,-0.25
2022-11-25T13:30:01.258Z,-0.31
2022-11-25T13:33:12.774Z,-0.59
2022-11-25T13:36:24.943Z,-0.08
2022-11-25T13:39:38.484Z,0.04
2022-11-25T13:42:46.179Z,-0.26
2022-11-25T13:45:51.238Z,-0.38
2022-11-25T13:48:56.213Z,-0.22
2022-11-25T13:52:07.317Z,-0.30
2022-11-25T13:55:26.586Z,-0.14
2022-11-25T13:58:36.818Z,-0.39
2022-11-25T14:02:21.494Z,-0.16
2022-11-25T14:06:06.049Z,-0.21
2022-11-25T14:09:35.046Z,-0.25
2022-11-25T14:12:42.589Z,-0.02
2022-11-25T14:16:06.879Z,0.02
2022-11-25T14:19:51.204Z,0.08
2022-11-25T14:23:24.137Z,0.09
2022-11-25T14:26:49.275Z,-0.24
2022-11-25T14:30:00.908Z,-0.27
2022-11-25T14:33:16.770Z,-0.14
2022-11-25T14:36:25.915Z,-0.12
2022-11-25T14:39:41.377Z,-0.19
2022-11-25T14:42:50.029Z,0.04
2022-11-25T14:46:16.143Z,0.06
2022-11-25T14:49:44.896Z,-0.16
2022-11-25T14:52:48.389Z,-0.09
2022-11-25T14:55:52.739Z,0.24
2022-11-25T14:58:59.318Z,0.22
2022-11-25T15:02:03.719Z,0.22
2022-11-25T15:05:17.596Z,0.16
2022-11-25T15:08:23.009Z,-0.05
2022-11-25T15:11:32.452Z,0.11
2022-11-25T15:14:41.705Z,0.12
2022-11-25T15:17:46.462Z,0.18
2022-11-25T15:20:57.172Z,0.03
2022-11-25T15:24:01.717Z,0.26
2022-11-25T15:27:18.080Z,0.34
2022-11-25T15:30:23.153Z,0.07
2022-11-25T15:33:30.288Z,-0.03
2022-11-25T15:36:35.310Z,0.15
2022-11-25T15:39:39.909Z,0.21
2022-11-25T15:42:44.308Z,0.22
2022-11-25T15:45:53.336Z,0.20
2022-11-25T15:49:02.478Z,0.11
2022-11-25T15:52:14.493Z,-0.04
2022-11-25T15:55:39.841Z,-0.20
2022-11-25T15:58:45.107Z,-0.48
2022-11-25T16:01:49.578Z,-0.47
2022-11-25T16:04:53.995Z,-0.45
2022-11-25T16:08:24.952Z,-0.39
2022-11-25T16:11:34.232Z,-0.34
2022-11-25T16:14:38.822Z,-0.05
2022-11-25T16:17:43.466Z,0.18
2022-11-25T16:20:51.194Z,0.27
2022-11-25T16:24:01.049Z,0.19
2022-11-25T16:27:16.095Z,-0.10
2022-11-25T16:30:22.393Z,-0.32
2022-11-25T16:33:27.054Z,-0.42
2022-11-25T16:36:31.405Z,-0.31
2022-11-25T16:39:36.130Z,-0.31
2022-11-25T16:42:41.437Z,-0.12
2022-11-25T16:45:51.692Z,-0.18
2022-11-25T16:48:56.480Z,-0.43
2022-11-25T16:52:00.814Z,-0.02
2022-11-25T16:55:06.690Z,-0.11
2022-11-25T16:58:19.795Z,-0.19
2022-11-25T17:01:27.049Z,-0.22
2022-11-25T17:04:31.701Z,-0.10
2022-11-25T17:07:37.323Z,-0.42
2022-11-25T17:10:44.272Z,-0.25
2022-11-25T17:13:51.712Z,-0.34
2022-11-25T17:16:56.347Z,-0.40
2022-11-25T17:20:01.029Z,-0.26
2022-11-25T17:23:07.601Z,-0.34
2022-11-25T17:26:21.835Z,-0.24
2022-11-25T17:29:43.362Z,-0.07
2022-11-25T17:32:49.448Z,-0.12
2022-11-25T17:35:53.761Z,-0.41
2022-11-25T17:38:58.200Z,-0.10
2022-11-25T17:42:03.492Z,-0.04
2022-11-25T17:45:15.043Z,-0.09
2022-11-25T17:48:21.068Z,-0.15
2022-11-25T17:51:25.310Z,-0.12
2022-11-25T17:54:29.625Z,-0.24
2022-11-25T17:57:36.401Z,-0.29
2022-11-25T18:00:44.341Z,-0.07
2022-11-25T18:03:51.567Z,-0.49
2022-11-25T18:06:55.985Z,-0.48
2022-11-25T18:10:00.245Z,-0.96
2022-11-25T18:13:06.450Z,-1.16
2022-11-25T18:16:12.012Z,-1.15
2022-11-25T18:19:16.246Z,-1.50
2022-11-25T18:22:21.152Z,-1.62
2022-11-25T18:25:28.829Z,-1.87
2022-11-25T18:28:34.004Z,-1.47
2022-11-25T18:31:38.674Z,-1.48
2022-11-25T18:34:42.987Z,-1.13
2022-11-25T18:37:48.250Z,-1.03
2022-11-25T18:40:54.083Z,-1.05
2022-11-25T18:44:02.162Z,-1.40
2022-11-25T18:47:10.775Z,-1.66
2022-11-25T18:50:23.901Z,-1.90
2022-11-25T18:53:28.712Z,-1.81
2022-11-25T18:56:32.968Z,-1.98
2022-11-25T18:59:38.187Z,-2.16
2022-11-25T19:02:42.494Z,-2.21
2022-11-25T19:05:47.367Z,-2.20
2022-11-25T19:08:54.194Z,-2.20
2022-11-25T19:11:58.654Z,-2.17
2022-11-25T19:15:02.971Z,-2.16
2022-11-25T19:18:08.459Z,-2.04
2022-11-25T19:21:22.373Z,-1.95
2022-11-25T19:24:26.760Z,-1.68
2022-11-25T19:27:33.534Z,-1.48
2022-11-25T19:30:38.159Z,-2.01
2022-11-25T19:33:46.958Z,-1.92
2022-11-25T19:36:51.337Z,-1.88
2022-11-25T19:39:55.704Z,-2.17
2022-11-25T19:43:00.032Z,-1.97
2022-11-25T19:46:05.009Z,-1.89
2022-11-25T19:49:10.866Z,-2.14
2022-11-25T19:52:20.774Z,-2.22
2022-11-25T19:55:31.035Z,-2.72
2022-11-25T19:58:35.514Z,-2.64
2022-11-25T20:01:43.822Z,-2.37
2022-11-25T20:04:51.185Z,-2.19
2022-11-25T20:07:55.595Z,-2.47
2022-11-25T20:11:00.282Z,-2.54
2022-11-25T20:14:06.333Z,-2.33
2022-11-25T20:17:15.522Z,-2.29
2022-11-25T20:20:23.887Z,-2.37
2022-11-25T20:23:44.112Z,-2.20
2022-11-25T20:26:49.772Z,-2.48
2022-11-25T20:29:54.279Z,-2.47
2022-11-25T20:32:59.042Z,-2.61
2022-11-25T20:36:12.196Z,-2.78
2022-11-25T20:39:21.584Z,-2.83
2022-11-25T20:42:27.183Z,-2.83
2022-11-25T20:45:32.576Z,-3.11
2022-11-25T20:48:38.936Z,-2.73
2022-11-25T20:51:43.620Z,-2.60
2022-11-25T20:54:47.925Z,-2.65
2022-11-25T20:57:53.800Z,-2.49
2022-11-25T21:00:59.454Z,-2.64
2022-11-25T21:04:03.768Z,-2.65
2022-11-25T21:07:14.902Z,-3.05
2022-11-25T21:10:25.149Z,-2.93
2022-11-25T21:13:31.632Z,-2.71
2022-11-25T21:16:35.846Z,-2.96
2022-11-25T21:19:40.357Z,-2.98
2022-11-25T21:22:51.303Z,-3.30
2022-11-25T21:26:00.775Z,-3.23
2022-11-25T21:29:05.326Z,-2.95
2022-11-25T21:32:24.116Z,-3.28
2022-11-25T21:35:34.521Z,-3.37
2022-11-25T21:38:38.976Z,-3.61
2022-11-25T21:41:43.574Z,-3.41
2022-11-25T21:44:49.075Z,-3.46
2022-11-25T21:47:53.335Z,-3.66
2022-11-25T21:50:57.971Z,-3.46
2022-11-25T21:54:02.252Z,-3.62
2022-11-25T21:57:06.911Z,-3.47
2022-11-25T22:00:25.920Z,-3.25
2022-11-25T22:03:32.502Z,-3.45
2022-11-25T22:06:36.916Z,-3.85
2022-11-25T22:09:41.840Z,-3.99
2022-11-25T22:12:48.387Z,-3.87
2022-11-25T22:15:56.956Z,-3.44
2022-11-25T22:19:02.005Z,-3.83
2022-11-25T22:22:13.683Z,-3.68
2022-11-25T22:25:18.412Z,-3.90
2022-11-25T22:28:28.674Z,-3.98
2022-11-25T22:31:32.973Z,-4.16
2022-11-25T22:34:37.229Z,-4.12
2022-11-25T22:37:42.140Z,-4.06
2022-11-25T22:40:55.063Z,-3.70
2022-11-25T22:43:59.460Z,-3.75
2022-11-25T22:47:04.518Z,-3.64
2022-11-25T22:50:21.939Z,-3.52
2022-11-25T22:53:27.042Z,-3.61
2022-11-25T22:56:31.377Z,-4.02
2022-11-25T22:59:35.909Z,-4.30
2022-11-25T23:02:40.489Z,-4.04
2022-11-25T23:05:44.981Z,-3.68
2022-11-25T23:08:49.328Z,-3.59
2022-11-25T23:11:53.440Z,-3.54
2022-11-25T23:14:57.955Z,-3.77
2022-11-25T23:18:05.082Z,-3.63
2022-11-25T23:21:23.223Z,-3.85
2022-11-25T23:24:27.561Z,-3.82
2022-11-25T23:27:31.642Z,-3.77
2022-11-25T23:30:36.883Z,-3.80
2022-11-25T23:33:42.716Z,-3.56
2022-11-25T23:36:48.057Z,-3.46
2022-11-25T23:39:54.512Z,-3.25
2022-11-25T23:42:58.817Z,-3.10
2022-11-25T23:46:03.334Z,-3.14
2022-11-25T23:49:17.421Z,-3.45
2022-11-25T23:52:28.768Z,-3.07
2022-11-25T23:55:36.912Z,-3.33
2022-11-25T23:58:43.992Z,-3.11
